Time;durP1;ratioP1;P1;durP2;ratioP2;P2;SDS_P1;SDS_P2;PMS_P1;PMS_P2;Temp;Humidity;BMP_temperature;BMP_pressure;BME280_temperature;BME280_humidity;BME280_pressure;Samples;Min_cycle;Max_cycle;Signal;HPM_P1;HPM_P2
2021/12/21 00:01:16;;;;;;;4.60;1.60;;;;;;;-0.72;63.77;96428.00;5112765;28;20023;-66
2021/12/21 00:03:42;;;;;;;1.92;1.33;;;;;;;-0.82;64.26;96428.81;5113536;28;20448;-69
2021/12/21 00:06:07;;;;;;;2.50;1.98;;;;;;;-0.86;63.78;96421.97;5113383;28;20081;-65
2021/12/21 00:08:33;;;;;;;2.60;1.90;;;;;;;-0.91;64.18;96421.94;5113451;28;20155;-69
2021/12/21 00:11:00;;;;;;;1.70;1.33;;;;;;;-1.05;64.51;96411.59;5113500;28;20470;-66
2021/12/21 00:23:36;;;;;;;2.17;1.50;;;;;;;-1.08;64.78;96438.09;5113184;28;20424;-65
2021/12/21 00:26:04;;;;;;;2.55;1.60;;;;;;;-1.10;64.32;96444.94;5113262;28;20046;-67
2021/12/21 00:28:35;;;;;;;4.15;2.00;;;;;;;-1.16;64.16;96450.91;5113297;28;20036;-63
2021/12/21 00:31:00;;;;;;;;;;;;;;;-1.19;64.04;96456.00;5113674;28;20027;-65
2021/12/21 00:33:26;;;;;;;2.35;1.60;;;;;;;-1.30;64.15;96455.94;5113224;28;19919;-66
2021/12/21 00:35:51;;;;;;;2.90;1.40;;;;;;;-1.33;64.93;96455.91;5113278;28;20016;-67
2021/12/21 00:38:17;;;;;;;1.75;1.40;;;;;;;-1.45;64.74;96460.94;5113230;28;20028;-69
2021/12/21 00:40:43;;;;;;;2.40;1.48;;;;;;;-1.47;64.86;96462.63;5113257;28;20466;-64
2021/12/21 00:43:08;;;;;;;1.90;1.70;;;;;;;-1.55;64.02;96462.56;5113120;28;20020;-66
2021/12/21 00:45:34;;;;;;;3.70;1.40;;;;;;;-1.51;62.98;96471.16;5113124;28;20027;-69
2021/12/21 00:47:59;;;;;;;3.08;1.60;;;;;;;-1.50;63.25;96476.31;5113222;28;20023;-64
2021/12/21 00:50:25;;;;;;;2.75;1.83;;;;;;;-1.42;62.43;96468.66;5113199;28;20473;-68
2021/12/21 00:52:53;;;;;;;3.88;1.70;;;;;;;-1.37;63.05;96466.13;5113091;28;20473;-69
2021/12/21 00:55:20;;;;;;;2.92;1.45;;;;;;;-1.40;62.75;96472.09;5113058;28;20479;-64
2021/12/21 00:57:46;;;;;;;1.67;1.48;;;;;;;-1.43;62.87;96466.94;5111887;28;20490;-63
2021/12/21 01:00:14;;;;;;;2.65;1.58;;;;;;;-1.48;62.95;96473.75;5113047;28;20038;-65
2021/12/21 01:02:41;;;;;;;1.30;1.10;;;;;;;-1.73;64.06;96466.69;5113102;28;20047;-66
2021/12/21 01:05:16;;;;;;;1.67;1.38;;;;;;;-1.75;64.18;96468.38;5112982;28;20024;-63
2021/12/21 01:07:45;;;;;;;1.70;1.30;;;;;;;-1.81;64.60;96469.19;5112952;28;20035;-66
2021/12/21 01:18:12;;;;;;;1.92;1.60;;;;;;;-1.93;65.62;96467.34;5116579;28;20100;-69
2021/12/21 01:20:48;;;;;;;4.10;1.40;;;;;;;-1.88;64.73;96466.53;5116492;28;20045;-64
2021/12/21 01:23:40;;;;;;;1.63;1.40;;;;;;;-1.76;64.79;96466.66;5116260;28;20168;-68
2021/12/21 01:26:10;;;;;;;4.82;1.50;;;;;;;-1.76;64.53;96470.91;5116106;28;20031;-66
2021/12/21 01:28:50;;;;;;;1.95;1.52;;;;;;;-1.73;64.98;96466.69;5116343;28;20028;-64
2021/12/21 01:36:39;;;;;;;2.75;1.48;;;;;;;-1.65;65.03;96477.88;5116178;28;20064;-69
2021/12/21 01:39:13;;;;;;;1.70;1.58;;;;;;;-1.59;65.24;96476.22;5115959;27;20028;-68
2021/12/21 01:52:25;;;;;;;1.52;1.15;;;;;;;-1.52;63.78;96470.28;5073161;28;20115;-65
2021/12/21 01:54:51;;;;;;;1.20;1.10;;;;;;;-1.50;64.50;96475.44;5073105;28;20029;-64
2021/12/21 01:57:17;;;;;;;3.58;1.67;;;;;;;-1.53;65.46;96477.13;5094199;28;20031;-64
2021/12/21 01:59:44;;;;;;;2.45;1.42;;;;;;;-1.47;65.74;96471.22;5115705;27;20027;-66
2021/12/21 02:02:13;;;;;;;4.03;1.50;;;;;;;-1.45;63.36;96477.19;5115607;28;20470;-66
2021/12/21 02:04:42;;;;;;;2.20;1.63;;;;;;;-1.42;63.61;96471.22;5115547;28;20023;-69
2021/12/21 02:07:08;;;;;;;3.17;1.80;;;;;;;-1.38;63.33;96465.28;5115427;28;20035;-66
2021/12/21 02:09:38;;;;;;;2.70;1.77;;;;;;;-1.30;62.45;96463.63;5115465;27;20053;-67
2021/12/21 02:12:15;;;;;;;5.13;3.30;;;;;;;-1.24;61.97;96475.66;5114282;28;20073;-65
2021/12/21 02:14:42;;;;;;;11.90;5.70;;;;;;;-1.22;61.82;96471.41;5115489;28;20028;-66
2021/12/21 02:20:16;;;;;;;3.65;2.75;;;;;;;-1.20;61.65;96461.13;5115676;28;20034;-67
2021/12/21 02:30:55;;;;;;;2.38;1.80;;;;;;;-1.08;62.65;96474.03;5115153;27;20067;-66
2021/12/21 02:33:23;;;;;;;1.65;1.40;;;;;;;-1.19;62.74;96473.13;5114928;28;20081;-66
2021/12/21 02:35:49;;;;;;;1.50;1.40;;;;;;;-1.23;63.02;96476.50;5114893;28;20024;-67
2021/12/21 02:38:15;;;;;;;3.40;1.60;;;;;;;-1.30;63.35;96470.47;5114937;28;20027;-68
2021/12/21 02:40:41;;;;;;;1.70;1.30;;;;;;;-1.32;64.03;96472.16;5114879;28;20016;-62
2021/12/21 02:43:09;;;;;;;2.35;1.45;;;;;;;-1.55;64.34;96477.97;5114911;28;20015;-65
2021/12/21 02:45:34;;;;;;;2.28;1.10;;;;;;;-1.58;65.15;96472.78;5114608;28;20024;-63
2021/12/21 02:48:00;;;;;;;1.60;1.45;;;;;;;-1.62;65.16;96481.31;5114831;28;20072;-67
2021/12/21 02:50:26;;;;;;;2.15;1.02;;;;;;;-1.67;64.73;96477.00;5114664;28;20020;-68
2021/12/21 02:52:53;;;;;;;1.63;1.13;;;;;;;-1.69;64.90;96480.38;5114600;28;20031;-69
2021/12/21 02:55:19;;;;;;;2.15;1.27;;;;;;;-1.78;65.48;96481.16;5114537;28;20442;-64
2021/12/21 02:57:44;;;;;;;1.45;0.93;;;;;;;-1.98;65.96;96479.28;5114589;28;20043;-66
2021/12/21 03:00:11;;;;;;;2.58;1.27;;;;;;;-1.98;65.99;96475.84;5114479;28;20065;-65
2021/12/21 03:02:37;;;;;;;1.90;1.17;;;;;;;-2.09;66.30;96484.28;5114495;28;20114;-66
2021/12/21 03:05:04;;;;;;;1.48;0.85;;;;;;;-2.23;67.01;96494.38;5114321;28;20035;-65
2021/12/21 03:08:20;;;;;;;1.33;1.00;;;;;;;-2.20;66.82;96491.84;5114405;28;20024;-63
2021/12/21 03:10:22;;;;;;;1.13;1.02;;;;;;;-2.18;67.08;96490.16;5106734;28;20044;-68
2021/12/21 03:15:19;;;;;;;1.30;1.20;;;;;;;-2.37;67.10;96494.22;5114318;28;20027;-66
2021/12/21 03:17:44;;;;;;;1.58;1.30;;;;;;;-2.33;67.07;96495.97;5114137;28;20497;-64
2021/12/21 03:20:10;;;;;;;1.40;1.30;;;;;;;-2.26;67.26;96508.88;5114196;28;20024;-67
2021/12/21 03:22:36;;;;;;;1.30;1.20;;;;;;;-2.28;67.12;96501.16;5113879;28;20101;-64
2021/12/21 03:25:01;;;;;;;1.90;1.10;;;;;;;-2.26;67.20;96496.03;5114145;28;20028;-64
2021/12/21 03:27:27;;;;;;;1.38;1.10;;;;;;;-2.32;67.42;96499.41;5113939;28;20023;-64
2021/12/21 03:29:52;;;;;;;1.50;1.27;;;;;;;-2.42;67.62;96498.41;5113909;28;20019;-63
2021/12/21 03:32:18;;;;;;;2.28;1.55;;;;;;;-2.39;67.87;96497.56;5113958;28;20397;-62
2021/12/21 03:34:44;;;;;;;1.73;1.40;;;;;;;-2.41;67.66;96497.56;5113837;28;20023;-65
2021/12/21 03:37:12;;;;;;;1.80;1.20;;;;;;;-2.47;68.10;96497.50;5113894;28;20028;-66
2021/12/21 03:39:43;;;;;;;3.75;1.45;;;;;;;-2.55;68.09;96500.84;5113767;28;20500;-65
2021/12/21 03:42:10;;;;;;;4.03;1.80;;;;;;;-2.52;67.88;96509.38;5113834;28;20080;-63
2021/12/21 03:44:36;;;;;;;3.50;1.98;;;;;;;-2.48;67.88;96501.75;5113730;28;20019;-66
2021/12/21 03:47:04;;;;;;;5.47;2.55;;;;;;;-2.40;67.38;96501.88;5113749;28;20488;-66
2021/12/21 03:52:08;;;;;;;;;;;;;;;-2.21;64.91;96515.75;5114143;27;20381;-67
2021/12/21 03:54:35;;;;;;;2.95;1.88;;;;;;;-2.10;64.36;96509.91;5113872;28;19912;-67
2021/12/21 03:57:01;;;;;;;1.83;1.35;;;;;;;-2.02;63.76;96508.28;5113629;28;20103;-65
2021/12/21 03:59:28;;;;;;;3.45;1.90;;;;;;;-1.91;63.45;96510.97;5113581;28;20051;-66
2021/12/21 04:01:54;;;;;;;2.67;1.80;;;;;;;-1.84;63.17;96520.44;5113532;28;20032;-66
2021/12/21 04:04:22;;;;;;;2.05;1.50;;;;;;;-1.76;64.21;96517.09;5113558;28;20028;-65
2021/12/21 04:06:47;;;;;;;1.88;1.33;;;;;;;-1.75;64.45;96522.25;5113376;28;20472;-63
2021/12/21 04:09:13;;;;;;;4.70;1.15;;;;;;;-1.80;64.64;96523.91;5113383;28;20026;-69
2021/12/21 04:11:39;;;;;;;1.80;1.40;;;;;;;-1.84;64.59;96528.13;5113426;28;20034;-66
2021/12/21 04:14:05;;;;;;;2.15;1.30;;;;;;;-1.90;65.05;96535.75;5113487;28;20020;-67
2021/12/21 04:16:30;;;;;;;1.48;1.38;;;;;;;-2.00;65.26;96533.94;5113350;28;20024;-64
2021/12/21 04:18:56;;;;;;;1.42;1.00;;;;;;;-2.04;65.53;96527.91;5113613;28;20019;-67
2021/12/21 04:21:22;;;;;;;1.45;1.15;;;;;;;-2.07;65.58;96525.31;5113386;28;20028;-64
2021/12/21 04:23:48;;;;;;;4.15;1.20;;;;;;;-2.22;65.99;96537.13;5113164;28;20039;-65
2021/12/21 04:26:15;;;;;;;3.55;1.40;;;;;;;-2.35;66.49;96537.81;5113416;28;20084;-64
2021/12/21 04:28:41;;;;;;;1.70;1.10;;;;;;;-2.35;67.07;96541.22;5113406;28;20062;-69
2021/12/21 04:31:09;;;;;;;1.85;0.95;;;;;;;-2.33;66.70;96544.66;5113327;28;20028;-65
2021/12/21 04:33:35;;;;;;;6.05;1.33;;;;;;;-2.37;67.25;96542.91;5113298;28;20031;-66
2021/12/21 04:36:02;;;;;;;1.70;1.02;;;;;;;-2.32;67.82;96550.66;5113281;28;20023;-67
2021/12/21 04:38:32;;;;;;;1.88;1.20;;;;;;;-2.33;68.68;96552.34;5113353;28;20023;-65
2021/12/21 04:41:11;;;;;;;1.15;1.05;;;;;;;-2.39;68.48;96567.63;5113288;28;20400;-65
2021/12/21 04:43:37;;;;;;;2.70;1.08;;;;;;;-2.40;68.52;96560.81;5113349;28;20028;-65
2021/12/21 04:46:03;;;;;;;2.33;1.45;;;;;;;-2.35;68.21;96566.00;5113156;28;20030;-65
2021/12/21 04:48:29;;;;;;;2.30;1.33;;;;;;;-2.28;68.42;96573.75;5117028;28;20062;-67
2021/12/21 04:50:55;;;;;;;1.88;1.40;;;;;;;-2.23;68.46;96567.84;5117174;28;20382;-69
2021/12/21 04:53:21;;;;;;;1.38;1.00;;;;;;;-2.35;69.40;96563.44;5116996;28;20433;-68
2021/12/21 04:55:47;;;;;;;1.65;1.23;;;;;;;-2.34;69.68;96567.72;5116933;28;20031;-67
2021/12/21 04:58:12;;;;;;;0.90;0.90;;;;;;;-2.25;69.44;96572.09;5116915;28;20020;-63
2021/12/21 05:00:39;;;;;;;1.30;1.20;;;;;;;-2.18;69.92;96585.00;5116954;28;20397;-65
2021/12/21 05:03:05;;;;;;;1.95;1.30;;;;;;;-2.14;69.92;96593.59;5116921;27;20073;-66
2021/12/21 05:05:31;;;;;;;2.67;1.58;;;;;;;-2.13;69.41;96587.63;5116682;28;20435;-67
2021/12/21 05:08:08;;;;;;;1.90;1.48;;;;;;;-2.04;66.79;96592.88;5116640;28;20028;-66
2021/12/21 05:10:49;;;;;;;3.97;1.60;;;;;;;-1.99;66.07;96595.50;5116707;28;20138;-70
2021/12/21 05:13:16;;;;;;;2.50;1.77;;;;;;;-1.87;65.12;96596.50;5116712;28;20059;-66
2021/12/21 05:15:42;;;;;;;1.88;1.50;;;;;;;-1.81;64.83;96589.72;5116707;28;20089;-67
2021/12/21 05:18:09;;;;;;;4.18;1.65;;;;;;;-1.70;64.22;96595.00;5116484;28;20381;-65
2021/12/21 05:20:36;;;;;;;2.50;1.58;;;;;;;-1.59;63.23;96604.50;5116418;28;20023;-68
2021/12/21 05:23:02;;;;;;;1.52;1.13;;;;;;;-1.51;62.62;96602.88;5116125;28;20050;-67
2021/12/21 05:25:28;;;;;;;1.20;1.10;;;;;;;-1.38;62.00;96608.16;5116242;28;20157;-66
2021/12/21 05:27:54;;;;;;;2.17;1.05;;;;;;;-1.28;61.37;96609.97;5116467;28;20102;-67
2021/12/21 05:30:20;;;;;;;2.10;1.40;;;;;;;-1.22;61.41;96611.72;5116220;28;20477;-66
2021/12/21 05:32:45;;;;;;;1.88;1.60;;;;;;;-1.24;60.92;96613.44;5116131;28;20019;-66
2021/12/21 05:35:11;;;;;;;2.55;1.60;;;;;;;-1.16;60.98;96610.09;5116310;28;20024;-67
2021/12/21 05:37:39;;;;;;;1.80;1.25;;;;;;;-1.10;61.05;96614.44;5116192;28;20346;-65
2021/12/21 05:40:12;;;;;;;2.30;1.50;;;;;;;-1.08;61.78;96617.00;5116142;28;20034;-67
2021/12/21 05:42:39;;;;;;;1.15;1.10;;;;;;;-1.08;62.02;96622.97;5116118;27;20105;-67
2021/12/21 05:45:06;;;;;;;4.38;1.40;;;;;;;-1.03;62.25;96630.72;5115993;28;20016;-64
2021/12/21 05:47:31;;;;;;;3.72;1.90;;;;;;;-1.00;61.99;96623.06;5115772;28;20059;-67
2021/12/21 05:49:57;;;;;;;3.15;1.80;;;;;;;-0.90;62.13;96624.03;5116020;28;20555;-68
2021/12/21 05:52:23;;;;;;;2.83;1.80;;;;;;;-0.83;62.35;96622.34;5116015;28;20092;-64
2021/12/21 05:54:49;;;;;;;31.10;13.88;;;;;;;-0.80;62.18;96630.09;5115819;28;20481;-65
2021/12/21 05:57:15;;;;;;;24.90;10.30;;;;;;;-0.80;61.99;96633.53;5115833;27;20028;-68
2021/12/21 05:59:41;;;;;;;11.05;5.57;;;;;;;-0.69;61.51;96637.91;5114553;27;20065;-64
2021/12/21 06:02:06;;;;;;;5.55;2.95;;;;;;;-0.69;61.40;96638.75;5115681;28;20027;-64
2021/12/21 06:04:32;;;;;;;2.83;2.00;;;;;;;-0.67;61.44;96633.59;5115751;28;20023;-67
2021/12/21 06:06:58;;;;;;;3.78;2.10;;;;;;;-0.64;61.84;96629.38;5115479;28;20035;-69
2021/12/21 06:09:24;;;;;;;2.67;2.08;;;;;;;-0.61;61.95;96627.69;5115504;28;20493;-65
2021/12/21 06:14:58;;;;;;;2.40;2.15;;;;;;;-0.46;60.48;96642.34;5115578;27;20103;-65
2021/12/21 06:25:36;;;;;;;6.47;4.10;;;;;;;-0.40;60.22;96668.97;5115372;28;20496;-65
2021/12/21 06:28:08;;;;;;;5.82;3.65;;;;;;;-0.34;60.22;96670.72;5115248;28;20027;-68
2021/12/21 06:30:35;;;;;;;3.90;2.80;;;;;;;-0.29;59.26;96675.91;5115202;28;20024;-62
2021/12/21 06:33:01;;;;;;;4.80;3.38;;;;;;;-0.23;60.13;96677.66;5115145;28;20073;-64
2021/12/21 06:35:27;;;;;;;12.15;4.53;;;;;;;-0.15;60.50;96681.16;5114864;28;20036;-64
2021/12/21 06:37:53;;;;;;;6.82;4.00;;;;;;;-0.11;60.00;96680.31;5114957;28;20023;-67
2021/12/21 06:40:20;;;;;;;4.38;2.75;;;;;;;-0.01;61.04;96691.50;5115057;27;20028;-68
2021/12/21 06:42:49;;;;;;;5.72;3.15;;;;;;;0.02;60.88;96693.22;5114972;28;20434;-66
2021/12/21 06:45:27;;;;;;;3.03;2.10;;;;;;;0.01;58.60;96699.22;5113530;28;20396;-68
2021/12/21 06:53:21;;;;;;;2.53;1.33;;;;;;;0.38;56.44;96704.59;5115097;28;20481;-63
2021/12/21 06:55:47;;;;;;;1.80;1.60;;;;;;;0.46;57.25;96704.63;5114675;28;20019;-65
2021/12/21 06:58:13;;;;;;;4.03;1.38;;;;;;;0.77;57.69;96707.34;5114583;28;20080;-65
2021/12/21 07:00:39;;;;;;;4.10;1.95;;;;;;;0.97;56.97;96709.13;5114566;27;20410;-69
2021/12/21 07:03:05;;;;;;;1.95;1.45;;;;;;;1.17;55.36;96713.47;5114589;28;20046;-68
2021/12/21 07:05:31;;;;;;;3.22;2.03;;;;;;;1.38;54.73;96705.75;5114487;28;20024;-65
2021/12/21 07:07:56;;;;;;;3.72;1.77;;;;;;;1.67;54.44;96719.53;5114372;28;20073;-65
2021/12/21 07:10:26;;;;;;;3.38;1.80;;;;;;;1.82;54.22;96716.09;5114120;28;20381;-66
2021/12/21 07:20:28;;;;;;;2.25;1.13;;;;;;;2.01;51.42;96729.84;5114248;28;20112;-67
2021/12/21 07:22:53;;;;;;;2.10;1.13;;;;;;;2.33;50.04;96722.03;5114034;28;20064;-66
2021/12/21 07:25:19;;;;;;;1.58;1.30;;;;;;;2.32;50.02;96741.00;5114117;28;20469;-63
2021/12/21 07:27:45;;;;;;;2.70;1.92;;;;;;;2.30;49.83;96738.41;5114025;28;20028;-69
2021/12/21 07:30:11;;;;;;;4.63;1.38;;;;;;;2.11;50.24;96735.84;5114019;28;20020;-65
2021/12/21 07:32:37;;;;;;;2.72;1.52;;;;;;;1.86;52.50;96750.47;5113995;28;20501;-69
2021/12/21 07:35:03;;;;;;;1.65;1.23;;;;;;;1.82;52.53;96747.06;5113971;28;20023;-69
2021/12/21 07:37:28;;;;;;;3.45;1.40;;;;;;;1.81;53.26;96752.22;5113799;28;20020;-66
2021/12/21 07:39:54;;;;;;;2.85;1.20;;;;;;;2.26;52.23;96749.63;5113897;28;20034;-65
2021/12/21 07:42:20;;;;;;;2.80;1.30;;;;;;;2.96;50.66;96745.94;5113827;28;20079;-67
2021/12/21 07:44:47;;;;;;;1.40;1.25;;;;;;;3.74;48.85;96756.72;5113732;28;20515;-67
2021/12/21 07:47:13;;;;;;;1.88;1.38;;;;;;;4.21;48.14;96764.09;5113624;28;20168;-63
2021/12/21 07:49:40;;;;;;;1.60;1.10;;;;;;;4.27;47.14;96765.75;5113677;28;20032;-68
2021/12/21 07:52:07;;;;;;;2.20;1.33;;;;;;;3.91;47.69;96763.47;5113782;28;20016;-62
2021/12/21 07:54:35;;;;;;;1.67;1.23;;;;;;;3.49;49.24;96768.97;5113708;28;20098;-65
2021/12/21 07:57:00;;;;;;;1.55;0.98;;;;;;;3.09;50.25;96770.00;5113684;28;20381;-67
2021/12/21 07:59:26;;;;;;;4.88;1.63;;;;;;;2.88;51.62;96754.59;5113770;28;20020;-67
2021/12/21 08:01:53;;;;;;;3.22;1.50;;;;;;;2.52;52.28;96767.63;5113586;28;20023;-65
2021/12/21 08:04:21;;;;;;;1.50;1.40;;;;;;;2.42;53.04;96767.66;5113535;28;20110;-64
2021/12/21 08:06:49;;;;;;;2.55;1.33;;;;;;;2.04;54.01;96774.59;5113479;28;20042;-67
2021/12/21 08:09:15;;;;;;;2.42;1.80;;;;;;;1.92;54.61;96771.13;5113550;28;20111;-66
2021/12/21 08:14:06;;;;;;;1.27;0.95;;;;;;;3.18;52.08;96769.97;5113447;28;20438;-67
2021/12/21 08:16:33;;;;;;;2.17;0.90;;;;;;;4.60;48.28;96779.28;5113300;28;20023;-63
2021/12/21 08:18:58;;;;;;;1.20;0.85;;;;;;;4.94;46.56;96778.06;5113458;28;20481;-68
2021/12/21 08:21:25;;;;;;;1.30;1.10;;;;;;;4.62;46.84;96777.53;5113897;28;20016;-67
2021/12/21 08:23:52;;;;;;;1.70;1.30;;;;;;;4.48;47.95;96788.03;5117232;28;20052;-63
2021/12/21 08:26:18;;;;;;;1.17;1.08;;;;;;;4.93;46.63;96781.50;5117529;27;20024;-63
2021/12/21 08:28:43;;;;;;;1.10;1.00;;;;;;;5.17;46.14;96784.69;5117673;28;20031;-65
2021/12/21 08:31:12;;;;;;;2.63;1.45;;;;;;;5.06;45.31;96780.47;5117206;28;20414;-65
2021/12/21 08:33:40;;;;;;;1.15;1.05;;;;;;;5.14;45.99;96793.38;5117336;28;20031;-62
2021/12/21 08:36:08;;;;;;;1.75;1.60;;;;;;;5.25;46.29;96785.47;5117317;28;20374;-66
2021/12/21 08:38:37;;;;;;;1.50;1.10;;;;;;;5.67;45.32;96787.50;5117302;28;20016;-67
2021/12/21 08:41:04;;;;;;;1.38;1.00;;;;;;;5.36;43.81;96787.88;5117337;28;20457;-68
2021/12/21 08:43:31;;;;;;;1.02;0.93;;;;;;;5.04;45.02;96790.03;5117353;28;20388;-66
2021/12/21 08:45:57;;;;;;;1.13;1.00;;;;;;;5.02;45.81;96793.50;5117059;28;20114;-66
2021/12/21 08:48:25;;;;;;;2.92;1.50;;;;;;;4.77;45.90;96789.47;5117305;28;20105;-67
2021/12/21 08:50:56;;;;;;;1.10;1.00;;;;;;;4.50;46.68;96788.88;5117208;28;20492;-64
2021/12/21 08:53:23;;;;;;;2.45;1.42;;;;;;;4.69;47.41;96793.84;5117154;28;20027;-66
2021/12/21 08:55:51;;;;;;;2.10;1.48;;;;;;;4.75;45.70;96791.22;5117079;28;20039;-64
2021/12/21 08:58:18;;;;;;;5.15;1.60;;;;;;;4.55;47.41;96791.44;5116881;28;20102;-66
2021/12/21 09:00:44;;;;;;;1.38;1.27;;;;;;;4.60;45.27;96789.63;5116816;28;20410;-63
2021/12/21 09:03:11;;;;;;;1.02;0.85;;;;;;;4.61;46.61;96790.50;5116898;28;20073;-65
2021/12/21 09:05:37;;;;;;;2.15;1.30;;;;;;;4.96;46.11;96785.81;5116782;28;20024;-62
2021/12/21 09:08:03;;;;;;;3.50;1.80;;;;;;;5.00;46.08;96784.91;5116913;28;20034;-67
2021/12/21 09:10:30;;;;;;;0.90;0.88;;;;;;;4.72;44.33;96786.06;5116635;27;20034;-63
2021/12/21 09:12:57;;;;;;;2.00;1.25;;;;;;;4.60;44.88;96791.38;5116582;28;20047;-65
2021/12/21 09:15:25;;;;;;;1.25;0.93;;;;;;;4.38;45.26;96789.00;5116655;28;20023;-65
2021/12/21 09:17:51;;;;;;;2.03;1.60;;;;;;;4.04;44.79;96791.00;5116567;28;20084;-68
2021/12/21 09:20:23;;;;;;;1.27;0.73;;;;;;;3.78;44.43;96797.22;5116604;28;20438;-64
2021/12/21 09:22:50;;;;;;;1.65;1.10;;;;;;;3.36;46.47;96788.84;5116227;28;20051;-66
2021/12/21 09:25:16;;;;;;;2.08;1.88;;;;;;;3.03;47.57;96792.47;5116455;28;20157;-65
2021/12/21 09:27:43;;;;;;;2.95;2.00;;;;;;;2.88;48.54;96797.66;5116303;28;20027;-66
2021/12/21 09:30:11;;;;;;;2.30;1.75;;;;;;;2.96;48.29;96797.66;5116402;28;20058;-64
2021/12/21 09:32:37;;;;;;;1.65;1.02;;;;;;;2.89;47.14;96800.25;5116063;28;20019;-65
2021/12/21 09:35:03;;;;;;;2.97;1.75;;;;;;;2.94;48.01;96807.13;5116176;28;20083;-63
2021/12/21 09:37:29;;;;;;;4.53;3.88;;;;;;;2.91;48.93;96805.41;5116245;28;20028;-68
2021/12/21 09:39:56;;;;;;;1.40;1.27;;;;;;;2.67;47.94;96799.44;5116007;28;20022;-64
2021/12/21 09:42:27;;;;;;;1.52;1.42;;;;;;;2.64;47.38;96797.75;5116168;28;20026;-65
2021/12/21 09:44:53;;;;;;;0.90;0.90;;;;;;;2.50;46.27;96802.09;5116339;27;20016;-63
2021/12/21 09:47:19;;;;;;;0.80;0.80;;;;;;;2.49;46.47;96784.84;5115931;28;20038;-67
2021/12/21 09:49:46;;;;;;;3.70;1.00;;;;;;;2.71;47.38;96787.41;5115998;28;20034;-62
2021/12/21 09:52:16;;;;;;;1.00;0.70;;;;;;;2.90;47.04;96790.78;5115877;28;20016;-67
2021/12/21 09:54:42;;;;;;;4.38;0.90;;;;;;;3.14;45.75;96783.78;5116002;28;20024;-63
2021/12/21 09:57:08;;;;;;;2.45;1.20;;;;;;;3.21;45.96;96782.91;5115977;28;20541;-67
2021/12/21 09:59:34;;;;;;;1.00;0.90;;;;;;;3.37;46.04;96782.84;5115808;28;20024;-65
2021/12/21 10:02:02;;;;;;;2.97;1.10;;;;;;;3.53;45.17;96779.25;5115817;28;20038;-68
2021/12/21 10:04:28;;;;;;;3.50;1.75;;;;;;;3.74;45.78;96792.97;5115713;28;20026;-67
2021/12/21 10:06:56;;;;;;;1.10;1.00;;;;;;;3.83;43.84;96791.16;5115602;28;20473;-68
2021/12/21 10:09:32;;;;;;;1.40;1.30;;;;;;;3.75;44.43;96789.50;5115482;28;20063;-62
2021/12/21 10:11:58;;;;;;;3.38;2.47;;;;;;;3.78;44.47;96786.88;5115579;28;20020;-64
2021/12/21 10:14:25;;;;;;;2.22;1.63;;;;;;;3.82;45.43;96785.13;5115516;28;20099;-66
2021/12/21 10:17:23;;;;;;;1.80;1.48;;;;;;;4.00;42.99;96786.72;5115514;28;20140;-66
2021/12/21 10:19:48;;;;;;;3.15;1.73;;;;;;;4.26;42.71;96779.59;5099492;28;20089;-63
2021/12/21 10:22:16;;;;;;;4.07;2.45;;;;;;;4.36;43.78;96782.97;5115156;28;20048;-64
2021/12/21 10:24:50;;;;;;;3.13;2.22;;;;;;;4.21;43.22;96784.81;5115398;28;20051;-66
2021/12/21 10:27:19;;;;;;;1.73;1.23;;;;;;;4.32;42.54;96783.84;5115081;28;20030;-65
2021/12/21 10:29:52;;;;;;;2.17;1.73;;;;;;;4.43;43.85;96784.63;5115343;27;20072;-64
2021/12/21 10:32:26;;;;;;;1.58;1.30;;;;;;;4.49;43.90;96783.72;5115246;28;20027;-65
2021/12/21 10:35:00;;;;;;;1.77;1.42;;;;;;;4.32;42.33;96782.13;5115160;28;20024;-66
2021/12/21 10:37:32;;;;;;;5.43;1.10;;;;;;;4.37;42.84;96787.28;5115012;28;20049;-65
2021/12/21 10:40:24;;;;;;;1.60;1.38;;;;;;;4.03;42.23;96793.59;5115045;28;20481;-63
2021/12/21 10:42:57;;;;;;;0.90;0.90;;;;;;;3.81;42.61;96786.00;5115039;28;20024;-68
2021/12/21 10:45:41;;;;;;;1.63;1.17;;;;;;;3.66;43.05;96787.81;5114386;28;20027;-66
2021/12/21 10:48:15;;;;;;;2.45;1.40;;;;;;;3.53;43.27;96776.66;5114937;28;20127;-63
2021/12/21 10:50:44;;;;;;;2.80;1.13;;;;;;;3.34;43.29;96777.66;5115038;28;20024;-67
2021/12/21 10:53:26;;;;;;;6.38;1.60;;;;;;;3.35;43.91;96776.78;5114959;28;20020;-65
2021/12/21 10:56:07;;;;;;;1.20;0.98;;;;;;;3.16;43.28;96780.31;5114718;28;20019;-65
2021/12/21 10:58:41;;;;;;;5.30;2.33;;;;;;;3.09;44.33;96780.34;5114664;28;20027;-67
2021/12/21 11:01:11;;;;;;;2.88;1.55;;;;;;;2.98;44.39;96783.00;5114628;28;20031;-63
2021/12/21 11:03:48;;;;;;;1.90;1.27;;;;;;;3.00;44.12;96776.09;5114542;28;20036;-63
2021/12/21 11:06:29;;;;;;;2.70;2.20;;;;;;;2.94;43.57;96783.84;5114585;28;20040;-64
2021/12/21 11:08:56;;;;;;;1.52;1.40;;;;;;;2.89;44.83;96787.31;5114579;28;20161;-66
2021/12/21 11:11:29;;;;;;;1.50;1.10;;;;;;;2.84;45.68;96778.75;5114578;28;20031;-67
2021/12/21 11:14:03;;;;;;;1.20;1.10;;;;;;;2.83;45.89;96771.00;5114318;28;20062;-65
2021/12/21 11:16:50;;;;;;;1.23;1.10;;;;;;;2.87;44.64;96780.44;5114436;28;20488;-65
2021/12/21 11:19:21;;;;;;;1.80;1.30;;;;;;;2.86;45.85;96787.34;5114445;28;20110;-64
2021/12/21 11:21:47;;;;;;;1.63;1.48;;;;;;;2.72;46.21;96792.56;5114303;28;20027;-66
2021/12/21 11:24:16;;;;;;;1.13;1.02;;;;;;;2.67;45.65;96793.44;5114079;28;20055;-64
2021/12/21 11:26:44;;;;;;;1.20;1.10;;;;;;;2.86;45.71;96787.34;5113988;28;20111;-64
2021/12/21 11:29:13;;;;;;;2.10;1.17;;;;;;;2.89;44.73;96783.91;5114121;28;20015;-68
2021/12/21 11:31:47;;;;;;;2.63;1.10;;;;;;;2.96;45.04;96790.75;5114053;28;20047;-64
2021/12/21 11:34:17;;;;;;;1.27;0.90;;;;;;;3.00;44.76;96792.47;5114112;28;20354;-64
2021/12/21 11:39:32;;;;;;;1.23;1.00;;;;;;;2.89;44.94;96800.25;5114246;28;20438;-66
2021/12/21 11:42:00;;;;;;;1.42;1.13;;;;;;;2.96;45.79;96801.09;5113830;28;20476;-67
2021/12/21 11:44:53;;;;;;;1.50;1.20;;;;;;;3.00;45.50;96795.06;5113806;28;20110;-65
2021/12/21 11:47:29;;;;;;;1.10;1.00;;;;;;;2.95;45.46;96806.28;5113775;28;20050;-65
2021/12/21 11:50:00;;;;;;;0.90;0.90;;;;;;;2.80;46.44;96799.44;5113719;28;20486;-67
2021/12/21 11:52:29;;;;;;;1.15;1.00;;;;;;;2.77;46.13;96797.72;5113755;28;20385;-64
2021/12/21 11:54:58;;;;;;;2.45;1.20;;;;;;;2.80;46.74;96791.69;5113700;28;20032;-65
2021/12/21 11:57:51;;;;;;;1.55;1.10;;;;;;;2.86;46.04;96792.50;5112804;28;20016;-66
2021/12/21 12:00:25;;;;;;;1.42;0.90;;;;;;;2.92;45.59;96796.78;5113709;28;20027;-65
2021/12/21 12:02:53;;;;;;;1.70;1.10;;;;;;;2.90;45.21;96795.94;5113801;28;20080;-65
2021/12/21 12:05:23;;;;;;;1.10;1.02;;;;;;;2.82;44.79;96789.94;5113693;28;20031;-66
2021/12/21 12:08:07;;;;;;;0.77;0.77;;;;;;;2.91;45.54;96795.06;5113477;28;20084;-65
2021/12/21 12:10:58;;;;;;;1.83;1.05;;;;;;;3.02;45.63;96802.81;5113550;28;20020;-66
2021/12/21 12:13:24;;;;;;;0.90;0.90;;;;;;;3.03;45.09;96802.78;5113523;28;20028;-65
2021/12/21 12:16:04;;;;;;;1.83;1.20;;;;;;;3.07;45.16;96803.63;5113539;28;20438;-66
2021/12/21 12:18:50;;;;;;;1.35;1.10;;;;;;;2.95;45.57;96809.69;5113412;28;20393;-65
2021/12/21 12:21:25;;;;;;;1.15;0.90;;;;;;;2.82;44.81;96820.94;5113456;28;20028;-68
2021/12/21 12:23:55;;;;;;;2.85;1.33;;;;;;;2.84;45.03;96821.81;5113399;28;20043;-66
2021/12/21 12:26:36;;;;;;;1.67;1.30;;;;;;;2.77;44.80;96810.63;5113410;28;20116;-64
2021/12/21 12:29:13;;;;;;;2.40;2.00;;;;;;;2.72;46.48;96812.38;5113319;28;20500;-65
2021/12/21 12:31:41;;;;;;;1.85;1.50;;;;;;;2.73;45.10;96812.34;5113371;28;20012;-64
2021/12/21 12:34:08;;;;;;;1.42;1.15;;;;;;;2.76;45.23;96816.66;5113411;28;20028;-64
2021/12/21 12:36:51;;;;;;;1.45;1.05;;;;;;;2.72;45.57;96820.09;5113349;28;20381;-64
2021/12/21 12:39:41;;;;;;;1.10;1.00;;;;;;;2.55;45.21;96825.28;5113289;28;20035;-66
2021/12/21 12:42:29;;;;;;;2.88;1.30;;;;;;;2.42;46.77;96827.03;5113331;28;20033;-67
2021/12/21 12:45:14;;;;;;;2.35;1.20;;;;;;;2.33;48.06;96821.03;5113281;28;20542;-67
2021/12/21 12:47:49;;;;;;;1.48;1.20;;;;;;;2.23;48.03;96824.47;5113264;28;20038;-64
2021/12/21 12:50:29;;;;;;;2.17;1.08;;;;;;;2.15;47.89;96827.06;5113140;28;20015;-67
2021/12/21 12:53:00;;;;;;;1.00;1.00;;;;;;;2.32;48.11;96829.63;5113278;28;20020;-65
2021/12/21 12:55:45;;;;;;;1.73;1.40;;;;;;;2.36;47.50;96835.66;5113113;28;20032;-66
2021/12/21 12:58:22;;;;;;;1.40;1.20;;;;;;;2.30;47.60;96826.19;5113196;28;20080;-65
2021/12/21 13:01:02;;;;;;;1.02;0.93;;;;;;;2.32;47.95;96839.13;5113121;28;20374;-65
2021/12/21 13:03:35;;;;;;;1.10;1.00;;;;;;;2.24;48.03;96837.41;5113088;28;20059;-68
2021/12/21 13:06:08;;;;;;;1.67;1.33;;;;;;;2.16;48.06;96839.09;5112835;28;20263;-65
2021/12/21 13:08:34;;;;;;;1.30;1.20;;;;;;;2.13;47.27;96832.22;5115255;28;20028;-65